WetterOnline ( https://www.wetteronline.de )

Wetter aktuell Garmisch-Partenkirchen

Aktuelles Wetter: Garmisch-Partenkirchen (719m)

6-stündlich | Neueste Meldungen
Ortszeit Temperatur Wetter
Mi, 16.10. 8:00 6.8° C bedeckt
Mi, 16.10. 2:00 9.2° C leichter Regen
Di, 15.10. 20:00 16.1° C bewölkt
Di, 15.10. 14:00 22.5° C leicht bewölkt
Di, 15.10. 8:00 6.0° C wolkenlos
Di, 15.10. 2:00 7.0° C wolkenlos
Mo, 14.10. 20:00 11.1° C wolkenlos
Mo, 14.10. 14:00 20.7° C bedeckt
Ortszeit Temperatur Wetter
Mi, 16.10. 9:00 7.1° C bedeckt
Mi, 16.10. 8:50 7.1° C bedeckt
Mi, 16.10. 8:40 7.1° C bedeckt
Mi, 16.10. 8:30 6.8° C bedeckt
Mi, 16.10. 8:20 6.8° C bedeckt
Mi, 16.10. 8:10 6.8° C bedeckt
Mi, 16.10. 8:00 6.8° C bedeckt
Mi, 16.10. 7:30 6.5° C bedeckt
Mi, 16.10. 7:00 6.4° C Nebel
Mi, 16.10. 6:30 6.4° C wolkig
Mi, 16.10. 6:00 6.8° C wolkig
Ortszeit Relative Feuchte Sichtweite
Mi, 16.10. 8:00 98% 1.1 km
Mi, 16.10. 2:00 92% 30 km
Di, 15.10. 20:00 66% 65 km
Di, 15.10. 14:00 36% >70 km
Di, 15.10. 8:00 96% 45 km
Di, 15.10. 2:00 95% 55 km
Mo, 14.10. 20:00 94% 45 km
Mo, 14.10. 14:00 51% >70 km
Ortszeit Relative Feuchte Sichtweite
Mi, 16.10. 9:00 97% 4.0 km
Mi, 16.10. 8:50 97% -
Mi, 16.10. 8:40 99% -
Mi, 16.10. 8:30 98% 40 km
Mi, 16.10. 8:20 98% -
Mi, 16.10. 8:10 98% -
Mi, 16.10. 8:00 98% 1.1 km
Mi, 16.10. 7:30 99% 8 km
Mi, 16.10. 7:00 99% 0.6 km
Mi, 16.10. 6:30 98% 11 km
Mi, 16.10. 6:00 97% 40 km
Ortszeit Niederschlagsmenge Niederschlagsart
Mi, 16.10. 8:00 16 l/m2 in 12 Std. Regen
Mi, 16.10. 2:00 14 l/m2 in 6 Std. Regen
Di, 15.10. 20:00 0.0 l/m2 in 12 Std. -
Di, 15.10. 14:00 0.0 l/m2 in 6 Std. -
Di, 15.10. 8:00 0.0 l/m2 in 12 Std. -
Di, 15.10. 2:00 0.0 l/m2 in 6 Std. -
Mo, 14.10. 20:00 0.0 l/m2 in 12 Std. -
Mo, 14.10. 14:00 0.0 l/m2 in 6 Std. -
Ortszeit Niederschlagsmenge Niederschlagsart
Mi, 16.10. 9:00 0.0 l/m2 in 1 Std. -
Mi, 16.10. 8:50 keine Meldung -
Mi, 16.10. 8:40 keine Meldung -
Mi, 16.10. 8:30 0.0 l/m2 in 1 Std. -
Mi, 16.10. 8:20 keine Meldung -
Mi, 16.10. 8:10 keine Meldung -
Mi, 16.10. 8:00 0.1 l/m2 in 1 Std. Regen
Mi, 16.10. 7:30 0.1 l/m2 in 1 Std. -
Mi, 16.10. 7:00 0.0 l/m2 in 1 Std. -
Mi, 16.10. 6:30 0.0 l/m2 in 1 Std. -
Mi, 16.10. 6:00 0.1 l/m2 in 1 Std. -
Ortszeit Stärke Spitze Richtung
km/h Bft. km/h Grad Sektor
Mi, 16.10. 8:00 4 1 7 170° S
Mi, 16.10. 2:00 0 0 22 - -
Di, 15.10. 20:00 6 1 31 360° N
Di, 15.10. 14:00 9 2 22 140° SO
Di, 15.10. 8:00 4 1 11 270° W
Di, 15.10. 2:00 4 1 11 250° W
Mo, 14.10. 20:00 4 1 22 210° SW
Mo, 14.10. 14:00 7 2 14 40° NO
Ortszeit Stärke Spitze Richtung
km/h Bft. km/h Grad Sektor
Mi, 16.10. 9:00 2 1 6 260° W
Mi, 16.10. 8:50 2 1 - 260° W
Mi, 16.10. 8:40 4 1 - 220° SW
Mi, 16.10. 8:30 4 1 7 210° SW
Mi, 16.10. 8:20 4 1 - 210° SW
Mi, 16.10. 8:10 4 1 - 230° SW
Mi, 16.10. 8:00 4 1 7 170° S
Mi, 16.10. 7:30 4 1 4 230° SW
Mi, 16.10. 7:00 2 1 6 220° SW
Mi, 16.10. 6:30 2 1 6 240° SW
Mi, 16.10. 6:00 2 1 4 230° SW
Ortszeit Untergrenze Bedeckung Gattung
total tief tief mittel hoch
Mi, 16.10. 8:00 60 m 8/8 8/8 - - -
Mi, 16.10. 2:00 1320 m 7/8 7/8 - - -
Di, 15.10. 20:00 1800 m 8/8 6/8 - - -
Di, 15.10. 14:00 9000 m 5/8 0/8 - - -
Di, 15.10. 8:00 - 0/8 0/8 - - -
Di, 15.10. 2:00 - 0/8 0/8 - - -
Mo, 14.10. 20:00 - 0/8 0/8 - - -
Mo, 14.10. 14:00 5100 m 8/8 8/8 - - -
Ortszeit Bedeckungsgrad in Achtel und Wolkenuntergrenze
Mi, 16.10. 9:00 8(60m) 8(270m) 8(570m)
Mi, 16.10. 8:50 8(60m) 8(270m) 8(570m)
Mi, 16.10. 8:40 8(60m) 8(270m)
Mi, 16.10. 8:30 8(60m)
Mi, 16.10. 8:20 8(60m)
Mi, 16.10. 8:10 8(60m)
Mi, 16.10. 8:00 8(60m)
Mi, 16.10. 7:30 3(30m) 8(150m)
Mi, 16.10. 7:00 5(30m) 6(150m)
Mi, 16.10. 6:30 4(30m) 4(330m) 5(3300m)
Mi, 16.10. 6:00 3(90m) 6(3600m) 7(4200m)
Ortszeit Luftdruck NN (hPa) Tendenz (hPa in 3 Std.)
Mi, 16.10. 8:00 1019 + 1,2
Mi, 16.10. 2:00 1016 + 3,9
Di, 15.10. 20:00 1007 + 2,6
Di, 15.10. 14:00 1004 - 2,2
Di, 15.10. 8:00 1013 - 0,9
Di, 15.10. 2:00 1015 0,0
Mo, 14.10. 20:00 1015 + 0,3
Mo, 14.10. 14:00 1013 - 1,8
Ortszeit Luftdruck NN (hPa) Tendenz (hPa in 3 Std.)
Mi, 16.10. 9:00 1020 + 1,5
Mi, 16.10. 8:50 1020 keine Meldung
Mi, 16.10. 8:40 1020 keine Meldung
Mi, 16.10. 8:30 1020 + 1,5
Mi, 16.10. 8:20 1020 keine Meldung
Mi, 16.10. 8:10 1019 keine Meldung
Mi, 16.10. 8:00 1019 + 1,2
Mi, 16.10. 7:30 1019 + 1,0
Mi, 16.10. 7:00 1019 + 0,8
Mi, 16.10. 6:30 1018 + 0,6
Mi, 16.10. 6:00 1018 + 0,5
Ortszeit Schneehöhe (cm)
Mi, 16.10. 8:00 0
Mi, 16.10. 2:00 0
Di, 15.10. 20:00 0
Di, 15.10. 14:00 0
Di, 15.10. 8:00 0
Di, 15.10. 2:00 0
Mo, 14.10. 20:00 0
Mo, 14.10. 14:00 0
Ortszeit Schneehöhe (cm)
Mi, 16.10. 9:00 0
Mi, 16.10. 8:50 0
Mi, 16.10. 8:40 0
Mi, 16.10. 8:30 0
Mi, 16.10. 8:20 0
Mi, 16.10. 8:10 0
Mi, 16.10. 8:00 0
Mi, 16.10. 7:30 0
Mi, 16.10. 7:00 0
Mi, 16.10. 6:30 0
Mi, 16.10. 6:00 0
Link zu dieser Seite / Seite empfehlen

Das Wetter in ...